Terminal Aerodrome Forecast
Issued by NWS

Current Version | Previous Version | Text Only | Print | Product List | Glossary On
Versions: 1 2 3 4 5 6 7 8 9 10 11 12 13 14 15 16 17 18
000
FTUS42 KTAE 251724
TAFECP
TAF
KECP 251724Z 2518/2618 27007KT P6SM VCTS BKN040CB
      TEMPO 2518/2522 VRB10G20KT 2SM TSRA
     FM260000 VRB03KT P6SM BKN050
     FM260800 VRB03KT P6SM VCSH BKN040=

USA.gov is the U.S. government's official web portal to all federal, state and local government web resources and services.